createdAt,value
2018-06-09T00:00:25.934Z,21.30
2018-06-09T00:02:54.134Z,21.87
2018-06-09T00:05:22.369Z,24.50
2018-06-09T00:07:52.845Z,22.37
2018-06-09T00:10:21.058Z,21.80
2018-06-09T00:12:49.317Z,24.57
2018-06-09T00:15:17.526Z,22.30
2018-06-09T00:17:46.063Z,23.90
2018-06-09T00:20:14.249Z,27.07
2018-06-09T00:22:42.481Z,22.57
2018-06-09T00:25:11.290Z,22.17
2018-06-09T00:27:39.466Z,23.90
2018-06-09T00:30:07.413Z,21.40
2018-06-09T00:32:35.957Z,21.40
2018-06-09T00:35:04.794Z,24.97
2018-06-09T00:37:34.162Z,22.73
2018-06-09T00:40:03.701Z,26.27
2018-06-09T00:42:32.101Z,21.60
2018-06-09T00:45:00.582Z,22.20
2018-06-09T00:47:28.825Z,24.03
2018-06-09T00:49:57.441Z,24.33
2018-06-09T00:52:26.198Z,23.73
2018-06-09T00:54:54.376Z,21.90
2018-06-09T00:57:22.593Z,22.10
2018-06-09T00:59:50.820Z,24.43
2018-06-09T01:02:19.654Z,25.03
2018-06-09T01:04:47.859Z,25.07
2018-06-09T01:07:16.062Z,22.77
2018-06-09T01:09:44.272Z,26.27
2018-06-09T01:12:13.393Z,24.47
2018-06-09T01:14:42.205Z,27.27
2018-06-09T01:17:10.483Z,28.17
2018-06-09T01:19:39.949Z,26.60
2018-06-09T01:22:08.202Z,22.80
2018-06-09T01:24:36.434Z,25.80
2018-06-09T01:27:04.688Z,22.90
2018-06-09T01:29:32.937Z,25.57
2018-06-09T01:32:01.122Z,22.03
2018-06-09T01:34:30.271Z,21.20
2018-06-09T01:36:58.986Z,21.33
2018-06-09T01:39:27.209Z,22.60
2018-06-09T01:41:55.506Z,22.27
2018-06-09T01:44:23.753Z,20.13
2018-06-09T01:46:52.068Z,23.53
2018-06-09T01:49:20.679Z,24.60
2018-06-09T01:51:48.894Z,25.90
2018-06-09T01:54:17.112Z,21.50
2018-06-09T01:56:45.294Z,24.93
2018-06-09T01:59:13.473Z,20.60
2018-06-09T02:01:42.210Z,20.43
2018-06-09T02:04:10.453Z,23.50
2018-06-09T02:06:39.106Z,23.67
2018-06-09T02:09:08.965Z,22.47
2018-06-09T02:11:37.162Z,21.33
2018-06-09T02:14:07.265Z,25.27
2018-06-09T02:16:35.486Z,26.40
2018-06-09T02:19:03.685Z,20.73
2018-06-09T02:21:31.910Z,23.73
2018-06-09T02:24:00.116Z,21.57
2018-06-09T02:26:29.302Z,26.33
2018-06-09T02:28:58.089Z,21.83
2018-06-09T02:31:26.388Z,26.27
2018-06-09T02:33:54.658Z,22.17
2018-06-09T02:36:24.106Z,22.10
2018-06-09T02:38:52.519Z,23.67
2018-06-09T02:41:21.178Z,22.80
2018-06-09T02:43:49.754Z,22.57
2018-06-09T02:46:18.249Z,20.53
2018-06-09T02:48:46.497Z,21.80
2018-06-09T02:51:14.709Z,24.77
2018-06-09T02:53:42.913Z,23.43
2018-06-09T02:56:11.205Z,20.93
2018-06-09T02:58:39.509Z,20.97
2018-06-09T03:01:08.590Z,21.13
2018-06-09T03:03:36.782Z,22.17
2018-06-09T03:06:05.007Z,21.33
2018-06-09T03:08:33.769Z,22.17
2018-06-09T03:11:02.594Z,24.23
2018-06-09T03:13:31.258Z,22.27
2018-06-09T03:15:59.485Z,21.47
2018-06-09T03:18:28.498Z,22.93
2018-06-09T03:20:57.114Z,21.37
2018-06-09T03:23:26.530Z,23.30
2018-06-09T03:25:54.809Z,22.63
2018-06-09T03:28:23.020Z,24.47
2018-06-09T03:30:51.240Z,21.80
2018-06-09T03:33:19.774Z,21.60
2018-06-09T03:35:48.872Z,21.60
2018-06-09T03:38:17.173Z,22.23
2018-06-09T03:40:45.424Z,20.43
2018-06-09T03:43:14.115Z,20.07
2018-06-09T03:45:42.319Z,23.33
2018-06-09T03:48:10.513Z,24.97
2018-06-09T03:50:38.787Z,26.73
2018-06-09T03:53:07.386Z,20.77
2018-06-09T03:55:35.882Z,23.57
2018-06-09T03:58:05.250Z,27.30
2018-06-09T04:00:33.426Z,21.93
2018-06-09T04:03:01.998Z,21.53
2018-06-09T04:05:30.248Z,22.67
2018-06-09T04:07:59.141Z,25.97
2018-06-09T04:10:27.373Z,21.60
2018-06-09T04:12:55.934Z,20.90
2018-06-09T04:15:24.157Z,19.90
2018-06-09T04:17:53.330Z,17.63
2018-06-09T04:20:21.505Z,18.67
2018-06-09T04:22:50.633Z,18.93
2018-06-09T04:25:19.353Z,19.60
2018-06-09T04:27:47.560Z,19.43
2018-06-09T04:30:17.757Z,18.33
2018-06-09T04:32:45.971Z,17.70
2018-06-09T04:35:14.207Z,16.90
2018-06-09T04:37:43.265Z,17.37
2018-06-09T04:40:12.064Z,17.97
2018-06-09T04:42:40.269Z,17.50
2018-06-09T04:45:08.470Z,15.20
2018-06-09T04:47:36.725Z,15.53
2018-06-09T04:50:05.123Z,15.63
2018-06-09T04:52:33.833Z,15.53
2018-06-09T04:55:02.419Z,18.00
2018-06-09T04:57:32.206Z,14.33
2018-06-09T05:00:00.376Z,13.30
2018-06-09T05:02:28.576Z,13.07
2018-06-09T05:04:56.805Z,14.83
2018-06-09T05:07:25.087Z,12.73
2018-06-09T05:09:53.317Z,13.30
2018-06-09T05:12:21.523Z,13.40
2018-06-09T05:14:49.741Z,14.17
2018-06-09T05:17:17.961Z,12.70
2018-06-09T05:19:47.058Z,12.80
2018-06-09T05:22:15.272Z,12.87
2018-06-09T05:24:43.533Z,13.93
2018-06-09T05:27:11.766Z,13.97
2018-06-09T05:29:40.005Z,12.67
2018-06-09T05:32:08.758Z,13.77
2018-06-09T05:34:37.402Z,11.37
2018-06-09T05:37:05.589Z,13.10
2018-06-09T05:39:33.844Z,13.10
2018-06-09T05:42:02.058Z,14.60
2018-06-09T05:44:32.022Z,14.40
2018-06-09T05:47:00.235Z,12.60
2018-06-09T05:49:28.488Z,13.10
2018-06-09T05:51:57.529Z,14.53
2018-06-09T05:54:25.720Z,13.90
2018-06-09T05:56:53.942Z,14.37
2018-06-09T05:59:22.150Z,13.83
2018-06-09T06:01:50.354Z,14.03
2018-06-09T06:04:18.591Z,12.33
2018-06-09T06:06:47.137Z,12.53
2018-06-09T06:09:17.851Z,13.00
2018-06-09T06:11:46.100Z,12.50
2018-06-09T06:14:14.273Z,13.77
2018-06-09T06:16:42.527Z,15.27
2018-06-09T06:19:10.713Z,12.60
2018-06-09T06:21:38.917Z,13.80
2018-06-09T06:24:07.449Z,12.93
2018-06-09T06:26:37.166Z,12.90
2018-06-09T06:29:05.429Z,13.00
2018-06-09T06:31:33.629Z,16.80
2018-06-09T06:34:01.862Z,13.13
2018-06-09T06:36:30.094Z,13.13
2018-06-09T06:38:58.343Z,12.30
2018-06-09T06:41:26.522Z,13.53
2018-06-09T06:43:54.728Z,14.97
2018-06-09T06:46:22.940Z,13.37
2018-06-09T06:48:51.137Z,13.40
2018-06-09T06:51:19.369Z,13.70
2018-06-09T06:53:47.605Z,13.27
2018-06-09T06:56:16.223Z,12.17
2018-06-09T06:58:44.865Z,12.70
2018-06-09T07:01:13.430Z,11.60
2018-06-09T07:03:41.606Z,14.63
2018-06-09T07:06:09.830Z,12.70
2018-06-09T07:08:38.069Z,12.13
2018-06-09T07:11:06.286Z,12.40
2018-06-09T07:13:36.087Z,12.80
2018-06-09T07:16:04.366Z,12.37
2018-06-09T07:18:33.605Z,12.63
2018-06-09T07:21:01.790Z,13.37
2018-06-09T07:23:29.978Z,12.63
2018-06-09T07:25:58.649Z,12.63
2018-06-09T07:28:26.884Z,11.83
2018-06-09T07:30:55.935Z,11.70
2018-06-09T07:33:24.121Z,12.10
2018-06-09T07:35:52.353Z,12.30
2018-06-09T07:38:20.580Z,12.53
2018-06-09T07:40:48.797Z,11.70
2018-06-09T07:43:17.019Z,11.70
2018-06-09T07:45:46.302Z,13.07
2018-06-09T07:48:14.498Z,12.47
2018-06-09T07:50:42.690Z,12.10
2018-06-09T07:53:11.726Z,13.27
2018-06-09T07:55:39.946Z,12.13
2018-06-09T07:58:08.178Z,11.93
2018-06-09T08:00:37.315Z,12.93
2018-06-09T08:03:06.109Z,12.20
2018-06-09T08:05:34.390Z,12.33
2018-06-09T08:08:03.546Z,11.77
2018-06-09T08:10:31.837Z,10.83
2018-06-09T08:13:01.770Z,11.70
2018-06-09T08:15:30.294Z,12.03
2018-06-09T08:17:59.506Z,11.53
2018-06-09T08:20:28.054Z,11.60
2018-06-09T08:22:56.664Z,10.90
2018-06-09T08:25:25.137Z,12.60
2018-06-09T08:27:53.380Z,11.90
2018-06-09T08:30:21.341Z,12.27
2018-06-09T08:32:49.571Z,13.30
2018-06-09T08:35:17.790Z,11.60
2018-06-09T08:37:46.604Z,13.17
2018-06-09T08:40:15.434Z,11.47
2018-06-09T08:42:44.204Z,14.87
2018-06-09T08:45:12.402Z,11.03
2018-06-09T08:47:40.625Z,12.70
2018-06-09T08:50:08.924Z,11.93
2018-06-09T08:52:37.158Z,11.47
2018-06-09T08:55:05.921Z,11.80
2018-06-09T08:57:36.051Z,11.63
2018-06-09T09:00:04.301Z,12.30
2018-06-09T09:02:32.535Z,11.40
2018-06-09T09:05:00.891Z,10.07
2018-06-09T09:07:29.621Z,9.83
2018-06-09T09:09:57.790Z,10.80
2018-06-09T09:12:26.051Z,10.97
2018-06-09T09:14:54.293Z,10.27
2018-06-09T09:17:22.833Z,10.20
2018-06-09T09:19:51.058Z,10.67
2018-06-09T09:22:19.277Z,10.13
2018-06-09T09:24:47.518Z,10.10
2018-06-09T09:27:15.777Z,9.47
2018-06-09T09:29:43.954Z,10.53
2018-06-09T09:32:12.285Z,8.70
2018-06-09T09:34:40.555Z,10.30
2018-06-09T09:37:08.798Z,9.85
2018-06-09T09:39:37.069Z,10.28
2018-06-09T09:42:05.590Z,10.68
2018-06-09T09:44:33.830Z,8.10
2018-06-09T09:47:02.560Z,8.30
2018-06-09T09:49:31.822Z,9.83
2018-06-09T09:52:00.015Z,8.68
2018-06-09T09:54:28.238Z,9.93
2018-06-09T09:56:56.441Z,9.03
2018-06-09T09:59:25.549Z,9.60
2018-06-09T10:01:53.766Z,8.85
2018-06-09T10:04:22.022Z,9.95
2018-06-09T10:06:50.266Z,9.80
2018-06-09T10:09:18.488Z,10.90
2018-06-09T10:11:46.708Z,9.43
2018-06-09T10:14:16.891Z,9.65
2018-06-09T10:16:45.127Z,9.80
2018-06-09T10:19:13.310Z,10.03
2018-06-09T10:21:41.527Z,8.93
2018-06-09T10:24:10.125Z,9.25
2018-06-09T10:26:39.214Z,9.05
2018-06-09T10:29:07.439Z,10.55
2018-06-09T10:31:36.350Z,9.80
2018-06-09T10:34:04.512Z,8.73
2018-06-09T10:36:33.058Z,9.35
2018-06-09T10:39:01.234Z,9.98
2018-06-09T10:41:29.378Z,7.85
2018-06-09T10:43:57.621Z,9.13
2018-06-09T10:46:25.853Z,8.40
2018-06-09T10:48:54.667Z,8.93
2018-06-09T10:51:24.010Z,8.38
2018-06-09T10:53:53.135Z,8.50
2018-06-09T10:56:21.326Z,8.38
2018-06-09T10:58:49.502Z,9.48
2018-06-09T11:01:17.710Z,8.18
2018-06-09T11:03:45.914Z,7.90
2018-06-09T11:06:14.098Z,7.92
2018-06-09T11:08:43.622Z,8.53
2018-06-09T11:11:11.870Z,10.05
2018-06-09T11:13:40.126Z,9.75
2018-06-09T11:16:08.353Z,8.85
2018-06-09T11:18:36.529Z,8.83
2018-06-09T11:21:05.122Z,9.13
2018-06-09T11:23:33.301Z,8.85
2018-06-09T11:26:01.756Z,9.18
2018-06-09T11:28:29.977Z,8.83
2018-06-09T11:30:58.378Z,9.65
2018-06-09T11:33:26.545Z,8.75
2018-06-09T11:35:54.772Z,9.13
2018-06-09T11:38:23.963Z,8.83
2018-06-09T11:40:52.198Z,8.90
2018-06-09T11:43:20.405Z,9.38
2018-06-09T11:45:49.286Z,9.38
2018-06-09T11:48:17.531Z,9.88
2018-06-09T11:50:46.414Z,8.78
2018-06-09T11:53:14.647Z,9.38
2018-06-09T11:55:44.834Z,9.53
2018-06-09T11:58:13.033Z,10.05
2018-06-09T12:00:41.277Z,10.00
2018-06-09T12:03:09.491Z,10.10
2018-06-09T12:05:40.300Z,9.63
2018-06-09T12:08:08.869Z,8.55
2018-06-09T12:10:37.068Z,8.75
2018-06-09T12:13:05.270Z,9.33
2018-06-09T12:15:33.459Z,9.30
2018-06-09T12:18:01.948Z,9.20
2018-06-09T12:20:30.220Z,9.23
2018-06-09T12:22:58.395Z,9.73
2018-06-09T12:25:27.020Z,9.95
2018-06-09T12:27:55.254Z,9.38
2018-06-09T12:30:23.900Z,8.98
2018-06-09T12:32:52.079Z,9.10
2018-06-09T12:35:20.262Z,10.13
2018-06-09T12:37:48.501Z,9.43
2018-06-09T12:40:16.714Z,8.28
2018-06-09T12:42:44.930Z,9.23
2018-06-09T12:45:13.107Z,9.25
2018-06-09T12:47:41.367Z,8.70
2018-06-09T12:50:10.290Z,10.00
2018-06-09T12:52:38.515Z,9.20
2018-06-09T12:55:06.742Z,8.93
2018-06-09T12:57:34.971Z,8.15
2018-06-09T13:00:03.852Z,8.20
2018-06-09T13:02:32.439Z,7.42
2018-06-09T13:05:03.230Z,7.90
2018-06-09T13:07:31.438Z,7.45
2018-06-09T13:10:00.035Z,7.75
2018-06-09T13:12:28.535Z,8.68
2018-06-09T13:14:56.746Z,7.87
2018-06-09T13:17:24.987Z,8.63
2018-06-09T13:19:53.151Z,7.50
2018-06-09T13:22:21.335Z,8.10
2018-06-09T13:24:49.593Z,8.50
2018-06-09T13:27:17.784Z,8.48
2018-06-09T13:29:46.435Z,8.38
2018-06-09T13:32:14.667Z,8.63
2018-06-09T13:34:42.902Z,7.85
2018-06-09T13:37:11.308Z,8.10
2018-06-09T13:39:39.478Z,7.62
2018-06-09T13:42:08.257Z,7.70
2018-06-09T13:44:37.139Z,8.30
2018-06-09T13:47:06.341Z,8.28
2018-06-09T13:49:35.177Z,7.60
2018-06-09T13:52:04.114Z,8.53
2018-06-09T13:54:32.399Z,8.10
2018-06-09T13:57:00.570Z,7.97
2018-06-09T13:59:28.801Z,6.72
2018-06-09T14:01:57.030Z,7.55
2018-06-09T14:04:25.540Z,7.97
2018-06-09T14:06:54.410Z,9.40
2018-06-09T14:09:22.855Z,8.60
2018-06-09T14:11:51.065Z,8.70
2018-06-09T14:14:19.258Z,9.00
2018-06-09T14:16:47.464Z,9.87
2018-06-09T14:19:15.714Z,9.50
2018-06-09T14:21:44.585Z,9.83
2018-06-09T14:24:14.270Z,10.27
2018-06-09T14:26:42.510Z,10.90
2018-06-09T14:29:10.748Z,12.13
2018-06-09T14:31:39.892Z,11.70
2018-06-09T14:34:08.190Z,9.80
2018-06-09T14:36:36.434Z,10.30
2018-06-09T14:39:07.187Z,10.33
2018-06-09T14:41:35.517Z,9.80
2018-06-09T14:44:03.726Z,10.07
2018-06-09T14:46:31.910Z,10.10
2018-06-09T14:49:00.134Z,9.57
2018-06-09T14:51:28.861Z,9.33
2018-06-09T14:53:57.082Z,9.50
2018-06-09T14:56:26.127Z,10.15
2018-06-09T14:58:54.354Z,9.57
2018-06-09T15:01:23.790Z,9.37
2018-06-09T15:03:52.207Z,9.03
2018-06-09T15:06:20.696Z,8.30
2018-06-09T15:08:48.933Z,5.83
2018-06-09T15:11:16.935Z,6.80
2018-06-09T15:13:46.726Z,6.92
2018-06-09T15:16:16.188Z,6.53
2018-06-09T15:18:45.011Z,6.90
2018-06-09T15:21:13.518Z,6.40
2018-06-09T15:23:41.734Z,21.73
2018-06-09T15:26:10.550Z,11.67
2018-06-09T15:28:39.149Z,12.30
2018-06-09T15:31:07.369Z,11.80
2018-06-09T15:33:35.574Z,13.00
2018-06-09T15:36:03.762Z,9.53
2018-06-09T15:38:31.985Z,9.73
2018-06-09T15:41:01.327Z,10.70
2018-06-09T15:43:29.546Z,14.77
2018-06-09T15:45:57.770Z,9.27
2018-06-09T15:48:26.486Z,8.40
2018-06-09T15:50:54.694Z,10.13
2018-06-09T15:53:22.911Z,18.03
2018-06-09T15:55:51.150Z,14.57
2018-06-09T15:58:19.508Z,27.17
2018-06-09T16:00:48.513Z,14.00
2018-06-09T16:03:16.774Z,12.27
2018-06-09T16:05:44.989Z,8.60
2018-06-09T16:08:14.203Z,8.87
2018-06-09T16:10:42.463Z,12.57
2018-06-09T16:13:11.319Z,13.13
2018-06-09T16:15:40.418Z,15.73
2018-06-09T16:18:08.639Z,14.90
2018-06-09T16:20:36.879Z,15.57
2018-06-09T16:23:05.210Z,15.63
2018-06-09T16:25:34.221Z,12.23
2018-06-09T16:28:02.490Z,11.10
2018-06-09T16:30:31.082Z,12.90
2018-06-09T16:32:59.430Z,12.10
2018-06-09T16:35:27.690Z,11.60
2018-06-09T16:37:55.910Z,10.70
2018-06-09T16:40:24.096Z,9.87
2018-06-09T16:42:52.340Z,10.73
2018-06-09T16:45:20.603Z,12.47
2018-06-09T16:47:48.886Z,9.87
2018-06-09T16:50:18.178Z,11.73
2018-06-09T16:52:46.418Z,9.83
2018-06-09T16:55:14.657Z,11.33
2018-06-09T16:57:42.854Z,9.90
2018-06-09T17:00:11.132Z,9.80
2018-06-09T17:02:39.567Z,9.80
2018-06-09T17:05:07.796Z,11.13
2018-06-09T17:07:35.989Z,10.70
2018-06-09T17:10:04.171Z,12.40
2018-06-09T17:12:32.401Z,11.30
2018-06-09T17:15:01.470Z,10.53
2018-06-09T17:17:29.738Z,11.50
2018-06-09T17:19:58.006Z,10.10
2018-06-09T17:22:26.590Z,11.57
2018-06-09T17:24:55.770Z,10.13
2018-06-09T17:27:24.013Z,11.13
2018-06-09T17:29:52.230Z,9.93
2018-06-09T17:32:21.319Z,12.23
2018-06-09T17:34:49.530Z,12.17
2018-06-09T17:37:17.734Z,20.50
2018-06-09T17:39:46.786Z,32.50
2018-06-09T17:42:14.974Z,25.33
2018-06-09T17:44:43.399Z,14.60
2018-06-09T17:47:11.593Z,15.80
2018-06-09T17:49:39.843Z,12.63
2018-06-09T17:52:08.075Z,16.03
2018-06-09T17:54:36.800Z,14.53
2018-06-09T17:57:05.039Z,14.93
2018-06-09T17:59:33.852Z,15.10
2018-06-09T18:02:02.330Z,15.20
2018-06-09T18:04:31.075Z,16.33
2018-06-09T18:06:59.323Z,16.93
2018-06-09T18:09:27.570Z,15.77
2018-06-09T18:11:56.182Z,15.77
2018-06-09T18:14:24.386Z,15.67
2018-06-09T18:16:52.643Z,14.43
2018-06-09T18:19:20.989Z,14.20
2018-06-09T18:21:49.198Z,14.23
2018-06-09T18:24:17.395Z,12.97
2018-06-09T18:26:45.935Z,11.83
2018-06-09T18:29:14.151Z,12.53
2018-06-09T18:31:42.381Z,12.00
2018-06-09T18:34:10.592Z,12.10
2018-06-09T18:36:39.665Z,9.70
2018-06-09T18:39:09.150Z,11.50
2018-06-09T18:41:37.634Z,10.93
2018-06-09T18:44:05.846Z,10.00
2018-06-09T18:46:34.081Z,11.87
2018-06-09T18:49:02.333Z,9.63
2018-06-09T18:51:30.539Z,8.90
2018-06-09T18:53:58.743Z,7.97
2018-06-09T18:56:27.762Z,8.77
2018-06-09T18:58:55.993Z,9.67
2018-06-09T19:01:24.529Z,9.53
2018-06-09T19:03:52.690Z,10.20
2018-06-09T19:06:20.901Z,9.27
2018-06-09T19:08:50.164Z,9.30
2018-06-09T19:11:18.347Z,10.70
2018-06-09T19:13:46.557Z,10.67
2018-06-09T19:16:14.938Z,11.57
2018-06-09T19:18:43.406Z,9.43
2018-06-09T19:21:12.614Z,12.10
2018-06-09T19:23:40.810Z,10.00
2018-06-09T19:26:09.098Z,10.53
2018-06-09T19:28:37.286Z,11.07
2018-06-09T19:31:05.495Z,10.60
2018-06-09T19:33:34.934Z,10.77
2018-06-09T19:36:03.930Z,10.53
2018-06-09T19:38:32.169Z,12.17
2018-06-09T19:41:00.409Z,12.43
2018-06-09T19:43:28.614Z,14.03
2018-06-09T19:45:57.926Z,12.77
2018-06-09T19:48:26.204Z,13.30
2018-06-09T19:50:54.414Z,11.50
2018-06-09T19:53:23.718Z,11.30
2018-06-09T19:55:51.927Z,11.77
2018-06-09T19:58:20.203Z,12.40
2018-06-09T20:00:49.007Z,11.07
2018-06-09T20:03:29.164Z,12.53
2018-06-09T20:05:57.390Z,12.70
2018-06-09T20:08:26.014Z,12.40
2018-06-09T20:10:54.214Z,13.20
2018-06-09T20:13:22.746Z,12.53
2018-06-09T20:15:52.129Z,10.40
2018-06-09T20:18:20.354Z,11.63
2018-06-09T20:20:49.158Z,10.83
2018-06-09T20:23:17.757Z,9.13
2018-06-09T20:25:45.952Z,11.00
2018-06-09T20:28:14.870Z,8.53
2018-06-09T20:30:42.884Z,8.43
2018-06-09T20:33:11.111Z,8.20
2018-06-09T20:35:40.866Z,8.60
2018-06-09T20:38:09.057Z,8.00
2018-06-09T20:40:37.242Z,8.00
2018-06-09T20:43:05.474Z,7.97
2018-06-09T20:45:34.351Z,5.80
2018-06-09T20:48:05.290Z,6.10
2018-06-09T20:50:33.496Z,6.93
2018-06-09T20:53:01.650Z,6.90
2018-06-09T20:55:29.899Z,7.30
2018-06-09T20:57:58.116Z,7.63
2018-06-09T21:00:26.894Z,6.80
2018-06-09T21:02:55.073Z,7.70
2018-06-09T21:05:23.564Z,6.97
2018-06-09T21:07:51.788Z,6.30
2018-06-09T21:10:19.990Z,6.17
2018-06-09T21:12:48.477Z,5.83
2018-06-09T21:15:16.676Z,5.23
2018-06-09T21:17:44.882Z,5.00
2018-06-09T21:20:13.089Z,6.30
2018-06-09T21:22:42.181Z,6.00
2018-06-09T21:25:11.210Z,5.10
2018-06-09T21:27:45.505Z,5.80
2018-06-09T21:30:16.614Z,5.23
2018-06-09T21:32:52.970Z,6.10
2018-06-09T21:35:39.321Z,5.93
2018-06-09T21:38:12.978Z,5.27
2018-06-09T21:40:48.288Z,5.30
2018-06-09T21:43:23.262Z,5.33
2018-06-09T21:45:52.038Z,5.43
2018-06-09T21:48:21.447Z,6.73
2018-06-09T21:50:50.250Z,10.10
2018-06-09T21:53:18.210Z,6.37
2018-06-09T21:55:46.413Z,9.23
2018-06-09T21:58:14.643Z,10.90
2018-06-09T22:00:42.850Z,10.90
2018-06-09T22:03:12.387Z,12.03
2018-06-09T22:05:40.609Z,12.87
2018-06-09T22:08:08.794Z,12.63
2018-06-09T22:10:37.013Z,12.00
2018-06-09T22:13:05.399Z,12.60
2018-06-09T22:15:34.263Z,10.97
2018-06-09T22:18:03.712Z,10.50
2018-06-09T22:20:31.913Z,7.57
2018-06-09T22:23:00.174Z,6.90
2018-06-09T22:25:34.567Z,7.23
2018-06-09T22:28:02.895Z,7.60
2018-06-09T22:30:31.137Z,7.57
2018-06-09T22:32:59.450Z,9.13
2018-06-09T22:35:27.655Z,8.07
2018-06-09T22:37:55.856Z,8.20
2018-06-09T22:40:24.065Z,9.27
2018-06-09T22:42:53.136Z,8.30
2018-06-09T22:45:21.321Z,8.03
2018-06-09T22:47:49.847Z,9.00
2018-06-09T22:50:18.867Z,8.97
2018-06-09T22:52:47.045Z,9.00
2018-06-09T22:55:15.745Z,12.00
2018-06-09T22:57:44.014Z,9.07
2018-06-09T23:00:23.606Z,8.80
2018-06-09T23:02:52.143Z,8.80
2018-06-09T23:05:20.314Z,8.70
2018-06-09T23:07:48.534Z,9.67
2018-06-09T23:10:17.610Z,10.50
2018-06-09T23:12:45.870Z,11.13
2018-06-09T23:15:14.131Z,12.53
2018-06-09T23:17:42.362Z,10.90
2018-06-09T23:20:10.559Z,14.03
2018-06-09T23:22:38.833Z,13.03
2018-06-09T23:25:07.055Z,12.23
2018-06-09T23:27:35.294Z,11.13
2018-06-09T23:30:04.415Z,12.03
2018-06-09T23:32:32.627Z,11.00
2018-06-09T23:35:01.837Z,11.10
2018-06-09T23:37:30.408Z,11.37
2018-06-09T23:39:58.663Z,10.17
2018-06-09T23:42:27.834Z,11.67
2018-06-09T23:44:56.001Z,12.37
2018-06-09T23:47:24.217Z,10.67
2018-06-09T23:49:52.450Z,11.80
2018-06-09T23:52:20.693Z,14.90
2018-06-09T23:54:49.421Z,12.43
2018-06-09T23:57:17.604Z,12.30
2018-06-09T23:59:45.834Z,13.13
